Time;durP1;ratioP1;P1;durP2;ratioP2;P2;SDS_P1;SDS_P2;PMS_P1;PMS_P2;Temp;Humidity;BMP_temperature;BMP_pressure;BME280_temperature;BME280_humidity;BME280_pressure;Samples;Min_cycle;Max_cycle;Signal;HPM_P1;HPM_P2
2021/05/12 00:02:08;;;;;;;6.97;3.20;;;;;;;13.33;66.29;99502.27;1781926;80;20975;-68
2021/05/12 00:04:34;;;;;;;4.65;2.80;;;;;;;13.28;67.00;99496.41;1781606;80;21679;-68
2021/05/12 00:07:00;;;;;;;4.85;2.90;;;;;;;13.21;66.26;99488.66;1766391;80;23269;-68
2021/05/12 00:09:27;;;;;;;4.62;2.72;;;;;;;13.16;66.97;99489.43;1766210;80;21019;-70
2021/05/12 00:11:53;;;;;;;3.65;2.75;;;;;;;13.12;66.73;99489.26;1781636;80;20983;-67
2021/05/12 00:14:19;;;;;;;4.70;2.72;;;;;;;13.09;66.79;99483.61;1781733;80;21030;-69
2021/05/12 00:16:45;;;;;;;9.53;3.02;;;;;;;13.06;67.29;99489.78;1781929;80;20962;-68
2021/05/12 00:19:12;;;;;;;5.55;3.15;;;;;;;13.04;67.65;99492.06;1749838;80;22449;-68
2021/05/12 00:21:46;;;;;;;6.80;2.75;;;;;;;13.00;67.59;99492.49;1749576;80;21552;-69
2021/05/12 00:24:11;;;;;;;3.55;2.58;;;;;;;12.98;67.57;99496.95;1781463;80;20887;-69
2021/05/12 00:26:38;;;;;;;8.70;3.17;;;;;;;12.93;67.36;99501.28;1749394;80;21587;-68
2021/05/12 00:29:07;;;;;;;4.92;2.70;;;;;;;12.90;67.13;99501.95;1766173;80;21078;-67
2021/05/12 00:31:33;;;;;;;7.78;2.80;;;;;;;12.84;67.04;99506.02;1781656;80;21065;-67
2021/05/12 00:33:59;;;;;;;3.08;2.60;;;;;;;12.79;67.56;99510.34;1781742;80;20987;-67
2021/05/12 00:36:26;;;;;;;3.80;2.17;;;;;;;12.73;67.04;99517.98;1766378;80;20943;-67
2021/05/12 00:38:53;;;;;;;3.55;2.22;;;;;;;12.70;66.54;99530.26;1781727;80;21037;-68
2021/05/12 00:41:20;;;;;;;4.35;2.10;;;;;;;12.64;65.41;99529.63;1781727;79;20915;-69
2021/05/12 00:43:46;;;;;;;6.87;1.90;;;;;;;12.61;65.50;99546.81;1781597;80;21029;-68
2021/05/12 00:46:13;;;;;;;3.20;1.80;;;;;;;12.55;64.94;99540.67;1781737;80;20927;-69
2021/05/12 00:48:39;;;;;;;3.75;1.98;;;;;;;12.49;64.48;99526.03;1781741;80;21580;-67
2021/05/12 00:51:06;;;;;;;4.08;1.85;;;;;;;12.44;64.71;99537.22;1781598;80;20923;-69
2021/05/12 00:53:34;;;;;;;3.27;1.82;;;;;;;12.38;64.69;99539.34;1781422;80;21584;-68
2021/05/12 00:56:00;;;;;;;2.30;1.62;;;;;;;12.35;65.04;99537.24;1751246;80;21160;-67
2021/05/12 00:58:27;;;;;;;2.42;1.70;;;;;;;12.31;63.95;99543.16;1750947;80;20987;-67
2021/05/12 01:00:53;;;;;;;3.02;2.00;;;;;;;12.26;63.79;99541.95;1781760;80;20899;-67
2021/05/12 01:03:20;;;;;;;3.05;1.70;;;;;;;12.21;63.54;99539.38;1749732;80;20998;-67
2021/05/12 01:05:58;;;;;;;3.12;1.82;;;;;;;12.14;63.70;99535.74;1781677;80;20994;-67
2021/05/12 01:08:24;;;;;;;2.62;1.60;;;;;;;12.07;63.20;99535.45;1779484;80;21073;-67
2021/05/12 01:10:50;;;;;;;2.55;1.30;;;;;;;12.00;63.43;99535.14;1781783;80;20867;-67
2021/05/12 01:13:17;;;;;;;7.35;1.42;;;;;;;11.90;62.69;99529.97;1749586;80;20967;-68
2021/05/12 01:15:44;;;;;;;2.90;1.32;;;;;;;11.81;62.27;99534.09;1749458;80;21648;-67
2021/05/12 01:18:17;;;;;;;1.52;1.37;;;;;;;11.70;61.49;99527.84;1781733;80;20959;-67
2021/05/12 01:20:59;;;;;;;6.83;1.75;;;;;;;11.61;61.89;99526.45;1781707;80;21192;-67
2021/05/12 01:23:29;;;;;;;1.53;1.30;;;;;;;11.48;61.94;99529.63;1781791;80;21580;-68
2021/05/12 01:25:56;;;;;;;3.50;1.62;;;;;;;11.39;62.58;99542.55;1781637;80;20927;-68
2021/05/12 01:28:26;;;;;;;2.25;1.15;;;;;;;11.29;61.74;99550.28;1781603;80;20923;-67
2021/05/12 01:31:08;;;;;;;4.97;1.25;;;;;;;11.14;60.84;99544.11;1781677;80;20915;-67
2021/05/12 01:33:35;;;;;;;2.95;1.00;;;;;;;11.06;60.66;99534.47;1750519;80;21353;-69
2021/05/12 01:36:03;;;;;;;2.20;1.20;;;;;;;10.95;60.27;99529.86;1733483;80;21034;-67
2021/05/12 01:38:30;;;;;;;1.37;1.12;;;;;;;10.86;60.44;99527.65;1781855;80;20916;-70
2021/05/12 01:40:57;;;;;;;1.75;1.10;;;;;;;10.77;60.97;99528.98;1749467;80;21514;-71
2021/05/12 01:43:24;;;;;;;6.80;1.42;;;;;;;10.69;61.36;99524.27;1781336;80;21010;-71
2021/05/12 01:45:50;;;;;;;2.20;1.32;;;;;;;10.63;61.67;99526.09;1781773;80;21049;-68
2021/05/12 01:48:17;;;;;;;1.47;1.20;;;;;;;10.54;61.70;99533.73;1749422;80;21039;-72
2021/05/12 01:50:44;;;;;;;1.55;1.00;;;;;;;10.47;61.75;99536.67;1781733;80;20978;-69
2021/05/12 01:53:11;;;;;;;1.75;1.20;;;;;;;10.41;61.55;99538.75;1781850;80;20951;-69
2021/05/12 01:55:38;;;;;;;1.45;0.95;;;;;;;10.34;61.75;99531.55;1781499;80;20998;-76
2021/05/12 01:58:05;;;;;;;1.80;1.35;;;;;;;10.28;62.30;99519.09;1733503;80;21759;-70
2021/05/12 02:00:35;;;;;;;1.92;1.70;;;;;;;10.19;62.58;99528.64;1781649;80;21053;-70
2021/05/12 02:03:09;;;;;;;1.70;1.32;;;;;;;10.12;62.78;99533.72;1781621;80;20915;-70
2021/05/12 02:05:37;;;;;;;4.28;1.10;;;;;;;10.06;63.21;99535.53;1781669;80;21038;-69
2021/05/12 02:08:06;;;;;;;1.82;1.07;;;;;;;9.96;63.63;99526.19;1781644;80;21504;-69
2021/05/12 02:10:33;;;;;;;2.22;1.10;;;;;;;9.87;63.79;99522.82;1781504;80;21086;-69
2021/05/12 02:13:03;;;;;;;3.05;1.37;;;;;;;9.81;63.91;99533.69;1781900;80;20927;-68
2021/05/12 02:15:29;;;;;;;2.58;1.10;;;;;;;9.76;64.19;99533.00;1750965;80;22264;-69
2021/05/12 02:17:55;;;;;;;3.27;1.20;;;;;;;9.70;64.48;99536.42;1781782;80;21006;-69
2021/05/12 02:20:28;;;;;;;6.40;1.25;;;;;;;9.65;64.90;99532.42;1781704;80;21489;-70
2021/05/12 02:23:01;;;;;;;2.50;1.15;;;;;;;9.58;64.95;99538.89;1781662;80;21976;-69
2021/05/12 02:25:27;;;;;;;;;;;;;;;9.52;65.07;99538.76;1784141;80;20959;-70
2021/05/12 02:27:54;;;;;;;5.10;1.15;;;;;;;9.49;65.45;99533.89;1781753;80;20526;-69
2021/05/12 02:30:21;;;;;;;1.60;1.20;;;;;;;9.44;65.55;99539.48;1781482;80;20891;-69
2021/05/12 02:32:47;;;;;;;2.92;1.30;;;;;;;9.40;65.62;99546.70;1745942;80;21054;-68
2021/05/12 02:35:15;;;;;;;1.95;1.37;;;;;;;9.39;66.14;99550.56;1745905;80;22763;-69
2021/05/12 02:37:42;;;;;;;3.30;1.80;;;;;;;9.34;66.46;99547.93;1781431;80;20983;-68
2021/05/12 02:40:10;;;;;;;3.33;1.27;;;;;;;9.28;66.73;99548.03;1745875;80;21537;-68
2021/05/12 02:42:37;;;;;;;4.25;1.60;;;;;;;9.24;67.29;99563.46;1745564;80;21014;-69
2021/05/12 02:45:08;;;;;;;1.70;1.30;;;;;;;9.19;67.71;99558.68;1770110;79;21037;-68
2021/05/12 02:47:34;;;;;;;2.75;1.30;;;;;;;9.17;68.07;99554.88;1758452;80;22690;-67
2021/05/12 02:50:01;;;;;;;3.55;1.37;;;;;;;9.14;68.68;99556.05;1787045;80;21006;-68
2021/05/12 02:52:27;;;;;;;4.15;1.62;;;;;;;9.11;68.83;99556.10;1758693;80;20892;-68
2021/05/12 02:54:54;;;;;;;3.45;1.82;;;;;;;9.09;69.04;99554.23;1787113;80;20915;-68
2021/05/12 02:57:22;;;;;;;5.37;1.70;;;;;;;9.06;69.20;99554.02;1753227;80;21034;-70
2021/05/12 02:59:49;;;;;;;2.65;1.87;;;;;;;9.05;69.23;99548.30;1753218;80;20995;-69
2021/05/12 03:02:16;;;;;;;4.17;1.80;;;;;;;9.03;69.12;99554.63;1793654;78;20985;-71
2021/05/12 03:04:42;;;;;;;1.90;1.50;;;;;;;9.03;68.95;99556.81;1787733;79;21020;-68
2021/05/12 03:07:08;;;;;;;1.85;1.57;;;;;;;9.03;68.76;99562.29;1777295;78;20984;-69
2021/05/12 03:09:35;;;;;;;2.30;1.50;;;;;;;9.01;68.36;99553.57;1796076;78;20962;-68
2021/05/12 03:12:01;;;;;;;4.00;1.62;;;;;;;9.01;68.05;99563.16;1812166;78;21035;-68
2021/05/12 03:14:29;;;;;;;2.80;1.32;;;;;;;9.01;67.86;99560.41;1789558;78;21755;-76
2021/05/12 03:16:57;;;;;;;2.83;1.70;;;;;;;9.00;67.81;99557.42;1811218;78;20926;-70
2021/05/12 03:19:26;;;;;;;1.30;1.20;;;;;;;9.00;67.78;99555.24;1781401;79;20973;-69
2021/05/12 03:21:52;;;;;;;2.80;1.42;;;;;;;9.02;67.83;99559.86;1752861;80;20877;-69
2021/05/12 03:24:19;;;;;;;3.42;1.75;;;;;;;9.03;67.97;99557.38;1786752;78;21900;-70
2021/05/12 03:26:45;;;;;;;2.85;1.30;;;;;;;9.03;68.13;99568.33;1819219;78;21000;-71
2021/05/12 03:29:11;;;;;;;2.12;1.67;;;;;;;9.05;68.28;99569.64;1819596;78;20937;-70
2021/05/12 03:31:38;;;;;;;3.10;1.60;;;;;;;9.06;68.44;99568.53;1819473;78;20953;-71
2021/05/12 03:34:05;;;;;;;4.20;1.70;;;;;;;9.07;68.68;99564.67;1819576;78;21008;-71
2021/05/12 03:36:31;;;;;;;2.87;1.72;;;;;;;9.07;68.71;99570.15;1789832;78;21496;-69
2021/05/12 03:38:58;;;;;;;2.62;1.70;;;;;;;9.08;68.83;99577.25;1819616;78;20976;-68
2021/05/12 03:41:25;;;;;;;7.58;1.85;;;;;;;9.11;68.95;99575.27;1789632;78;20933;-69
2021/05/12 03:43:51;;;;;;;1.77;1.47;;;;;;;9.13;68.86;99578.52;1788622;78;21577;-67
2021/05/12 03:46:19;;;;;;;3.80;1.42;;;;;;;9.15;68.87;99570.81;1781686;79;21043;-69
2021/05/12 03:48:45;;;;;;;2.12;1.77;;;;;;;9.19;68.74;99580.59;1752384;79;22039;-70
2021/05/12 03:51:11;;;;;;;4.08;1.77;;;;;;;9.23;69.14;99574.76;1814413;78;20918;-69
2021/05/12 03:53:38;;;;;;;1.52;1.20;;;;;;;9.26;68.73;99581.77;1789354;79;20902;-69
2021/05/12 03:56:04;;;;;;;3.42;1.12;;;;;;;9.27;67.52;99577.11;1787656;80;20906;-69
2021/05/12 03:58:30;;;;;;;1.80;1.25;;;;;;;9.28;67.91;99585.58;1766548;80;20989;-72
2021/05/12 04:00:58;;;;;;;3.92;1.40;;;;;;;9.27;67.86;99573.00;1785831;80;21104;-70
2021/05/12 04:03:27;;;;;;;1.10;0.90;;;;;;;9.29;68.16;99581.72;1786390;80;20968;-67
2021/05/12 04:05:52;;;;;;;6.28;1.10;;;;;;;9.31;68.20;99580.86;1766514;80;20985;-68
2021/05/12 04:08:19;;;;;;;7.45;1.55;;;;;;;9.35;67.31;99578.31;1786617;80;21096;-69
2021/05/12 04:10:45;;;;;;;2.20;1.12;;;;;;;9.39;67.46;99578.77;1786509;80;20980;-67
2021/05/12 04:13:11;;;;;;;1.00;0.90;;;;;;;9.42;66.96;99575.41;1786929;80;21017;-68
2021/05/12 04:15:38;;;;;;;1.62;1.12;;;;;;;9.47;67.35;99574.49;1787491;78;20989;-66
2021/05/12 04:18:04;;;;;;;2.85;0.80;;;;;;;9.51;66.87;99568.09;1787625;80;20898;-69
2021/05/12 04:20:30;;;;;;;1.10;0.90;;;;;;;9.57;67.27;99571.53;1767670;80;20913;-67
2021/05/12 04:22:57;;;;;;;1.45;0.70;;;;;;;9.62;66.69;99567.30;1800330;79;20950;-68
2021/05/12 04:25:24;;;;;;;2.22;0.80;;;;;;;9.67;65.81;99569.12;1776321;80;21229;-71
2021/05/12 04:27:51;;;;;;;1.57;0.57;;;;;;;9.73;65.62;99557.73;1776219;80;20894;-68
2021/05/12 04:30:20;;;;;;;1.98;0.62;;;;;;;9.78;66.09;99563.09;1776364;80;20914;-65
2021/05/12 04:32:49;;;;;;;4.50;0.90;;;;;;;9.84;65.57;99561.02;1776365;80;20953;-68
2021/05/12 04:35:18;;;;;;;2.77;0.90;;;;;;;9.89;64.77;99559.52;1776282;80;20957;-68
2021/05/12 04:37:46;;;;;;;1.55;0.60;;;;;;;9.93;64.80;99559.96;1745780;80;22441;-68
2021/05/12 04:40:16;;;;;;;1.80;0.88;;;;;;;10.02;64.86;99557.84;1776180;80;20854;-68
2021/05/12 04:42:43;;;;;;;1.32;0.80;;;;;;;10.05;63.36;99555.30;1776274;80;20855;-68
2021/05/12 04:45:12;;;;;;;4.65;0.82;;;;;;;10.08;63.93;99551.12;1776213;80;21528;-68
2021/05/12 04:47:39;;;;;;;5.22;0.90;;;;;;;10.13;64.22;99558.66;1745871;80;20954;-68
2021/05/12 04:50:07;;;;;;;1.00;0.90;;;;;;;10.21;64.18;99562.61;1776077;80;21972;-68
2021/05/12 04:52:33;;;;;;;1.32;1.00;;;;;;;10.28;63.04;99560.25;1788248;79;21061;-71
2021/05/12 04:55:00;;;;;;;1.45;0.72;;;;;;;10.34;63.37;99561.73;1797232;78;20973;-73
2021/05/12 04:57:26;;;;;;;2.60;1.02;;;;;;;10.41;63.36;99558.52;1812320;79;21599;-71
2021/05/12 04:59:52;;;;;;;2.22;0.88;;;;;;;10.49;62.55;99559.94;1813096;79;20992;-68
2021/05/12 05:02:18;;;;;;;1.27;0.57;;;;;;;10.53;62.81;99566.98;1781852;79;21483;-69
2021/05/12 05:04:45;;;;;;;2.33;0.60;;;;;;;10.57;62.05;99574.27;1780297;79;20993;-68
2021/05/12 05:07:11;;;;;;;1.62;0.55;;;;;;;10.57;61.49;99572.90;1813112;78;20929;-69
2021/05/12 05:09:37;;;;;;;4.33;0.62;;;;;;;10.57;61.49;99570.16;1800179;79;20993;-70
2021/05/12 05:12:05;;;;;;;2.17;0.50;;;;;;;10.59;61.63;99573.39;1811285;78;21532;-69
2021/05/12 05:14:31;;;;;;;0.70;0.40;;;;;;;10.63;61.76;99569.46;1813847;78;21091;-70
2021/05/12 05:16:58;;;;;;;0.68;0.55;;;;;;;10.68;61.14;99568.52;1781940;79;20946;-69
2021/05/12 05:19:24;;;;;;;1.37;0.53;;;;;;;10.73;61.47;99567.00;1781900;79;21036;-69
2021/05/12 05:21:50;;;;;;;5.30;0.88;;;;;;;10.79;61.80;99563.80;1781791;79;21024;-76
2021/05/12 05:24:16;;;;;;;1.35;0.40;;;;;;;10.87;60.88;99567.72;1781876;79;21515;-70
2021/05/12 05:26:43;;;;;;;2.35;0.70;;;;;;;10.86;60.49;99577.08;1813737;78;21122;-69
2021/05/12 05:29:09;;;;;;;3.30;0.70;;;;;;;10.76;60.79;99574.61;1813709;78;20966;-69
2021/05/12 05:31:35;;;;;;;2.70;1.02;;;;;;;10.71;62.00;99563.20;1813784;78;21240;-70
2021/05/12 05:34:20;;;;;;;2.27;1.52;;;;;;;10.76;62.64;99568.55;1813761;79;21039;-69
2021/05/12 05:37:05;;;;;;;2.98;0.98;;;;;;;10.88;63.52;99576.20;1814214;79;20992;-69
2021/05/12 05:39:55;;;;;;;3.35;1.02;;;;;;;11.01;62.60;99572.51;1803833;79;21044;-69
2021/05/12 05:42:39;;;;;;;3.37;1.20;;;;;;;11.13;61.89;99574.09;1813379;79;20938;-69
2021/05/12 05:45:27;;;;;;;5.70;1.50;;;;;;;11.22;62.03;99582.36;1814380;79;21463;-69
2021/05/12 05:48:12;;;;;;;4.95;1.92;;;;;;;11.25;61.72;99572.91;1813271;79;21065;-72
2021/05/12 05:50:57;;;;;;;3.50;1.55;;;;;;;11.34;61.78;99572.94;1814291;79;20940;-69
2021/05/12 05:53:42;;;;;;;1.45;1.02;;;;;;;11.36;61.38;99576.17;1814422;79;21180;-70
2021/05/12 05:56:26;;;;;;;4.30;1.60;;;;;;;11.36;61.63;99577.55;1814258;79;20988;-73
2021/05/12 05:59:11;;;;;;;2.40;0.95;;;;;;;11.38;62.41;99575.85;1814162;79;20881;-71
2021/05/12 06:01:57;;;;;;;2.42;0.70;;;;;;;11.44;61.74;99566.33;1814336;79;21508;-72
2021/05/12 06:04:43;;;;;;;3.33;1.35;;;;;;;11.63;60.41;99564.06;1814580;79;20977;-71
2021/05/12 06:07:28;;;;;;;5.85;0.98;;;;;;;11.82;59.62;99561.84;1814443;79;21020;-81
2021/05/12 06:10:13;;;;;;;3.33;1.10;;;;;;;11.99;58.77;99571.23;1733230;79;21001;-73
2021/05/12 06:12:57;;;;;;;5.00;1.42;;;;;;;12.07;59.45;99559.41;1814461;79;20920;-74
2021/05/12 06:15:43;;;;;;;2.10;1.02;;;;;;;12.05;59.07;99567.18;1814421;79;20894;-72
2021/05/12 06:18:28;;;;;;;4.35;1.25;;;;;;;12.04;59.79;99560.06;1814374;79;20946;-73
2021/05/12 06:21:13;;;;;;;7.87;2.87;;;;;;;12.08;59.33;99560.46;1814493;79;21267;-73
2021/05/12 06:23:58;;;;;;;5.30;2.60;;;;;;;12.27;59.52;99568.91;1814308;79;20950;-72
2021/05/12 06:26:43;;;;;;;12.82;2.20;;;;;;;12.56;59.09;99570.39;1814447;79;21434;-72
2021/05/12 06:29:27;;;;;;;4.47;0.90;;;;;;;12.68;56.78;99572.47;1814517;79;20965;-72
2021/05/12 06:32:11;;;;;;;4.03;1.25;;;;;;;12.59;57.56;99566.17;1813220;79;21683;-76
2021/05/12 06:34:56;;;;;;;2.80;1.00;;;;;;;12.49;57.76;99561.26;1802504;79;21266;-75
2021/05/12 06:37:39;;;;;;;8.88;1.10;;;;;;;12.41;57.75;99559.33;1695920;83;21527;-72
2021/05/12 06:40:17;;;;;;;1.80;0.90;;;;;;;12.40;57.41;99557.72;1783728;79;20957;-72
2021/05/12 06:42:44;;;;;;;3.62;1.30;;;;;;;12.39;57.63;99553.34;1814402;78;20893;-72
2021/05/12 06:45:12;;;;;;;3.20;1.22;;;;;;;12.39;58.43;99550.59;1782570;79;20905;-73
2021/05/12 06:47:41;;;;;;;5.22;1.10;;;;;;;12.53;58.78;99562.79;1814441;78;21075;-74
2021/05/12 06:50:09;;;;;;;3.67;1.00;;;;;;;12.66;57.57;99558.22;1814412;78;20962;-73
2021/05/12 06:52:35;;;;;;;4.17;1.00;;;;;;;12.68;57.04;99564.20;1814401;78;20961;-74
2021/05/12 06:55:01;;;;;;;2.20;0.90;;;;;;;12.68;58.04;99561.45;1782690;79;20894;-74
2021/05/12 06:57:28;;;;;;;3.47;0.90;;;;;;;12.67;57.27;99558.45;1782676;79;20993;-74
2021/05/12 06:59:54;;;;;;;1.20;0.80;;;;;;;12.70;57.10;99550.91;1780727;79;21146;-74
2021/05/12 07:02:20;;;;;;;2.12;1.00;;;;;;;12.82;58.61;99547.67;1800823;79;21568;-74
2021/05/12 07:04:46;;;;;;;5.55;1.27;;;;;;;13.07;56.88;99547.33;1814392;79;20965;-74
2021/05/12 07:07:13;;;;;;;3.90;1.20;;;;;;;13.32;55.29;99550.27;1814394;78;20902;-73
2021/05/12 07:09:39;;;;;;;5.00;1.10;;;;;;;13.46;55.62;99553.02;1782518;79;20969;-74
2021/05/12 07:12:07;;;;;;;3.20;0.98;;;;;;;13.52;53.54;99543.41;1814398;78;21155;-76
2021/05/12 07:14:33;;;;;;;4.50;1.10;;;;;;;13.40;53.99;99545.28;1782211;79;20925;-75
2021/05/12 07:17:00;;;;;;;3.60;1.10;;;;;;;13.24;53.90;99551.16;1805694;79;20862;-74
2021/05/12 07:19:26;;;;;;;2.65;0.80;;;;;;;13.20;55.30;99545.50;1769890;79;20981;-76
2021/05/12 07:21:52;;;;;;;4.97;1.10;;;;;;;13.31;55.83;99547.28;1801811;78;21463;-77
2021/05/12 07:24:18;;;;;;;1.12;1.00;;;;;;;13.43;55.31;99542.66;1797373;79;21114;-77
2021/05/12 07:26:45;;;;;;;5.78;1.42;;;;;;;13.43;54.56;99537.72;1808433;79;21025;-73
2021/05/12 07:29:13;;;;;;;5.40;1.32;;;;;;;13.43;54.96;99534.95;1788752;78;20878;-76
2021/05/12 07:31:39;;;;;;;5.75;1.20;;;;;;;13.60;53.78;99541.73;1767525;80;21208;-74
2021/05/12 07:34:09;;;;;;;2.15;1.02;;;;;;;13.73;53.18;99531.01;1787583;80;20926;-73
2021/05/12 07:36:34;;;;;;;7.28;0.90;;;;;;;13.90;53.33;99531.41;1767207;80;22435;-72
2021/05/12 07:39:00;;;;;;;5.45;1.10;;;;;;;14.15;50.98;99534.51;1789142;79;20882;-73
2021/05/12 07:41:26;;;;;;;2.27;1.10;;;;;;;14.46;52.06;99528.51;1778813;79;21068;-72
2021/05/12 07:43:52;;;;;;;4.17;1.15;;;;;;;14.72;51.19;99527.41;1814302;79;20890;-72
2021/05/12 07:46:19;;;;;;;3.40;0.82;;;;;;;14.81;50.65;99518.44;1787322;78;20968;-72
2021/05/12 07:48:46;;;;;;;2.80;0.60;;;;;;;14.69;49.82;99516.47;1790482;78;22640;-71
2021/05/12 07:51:12;;;;;;;2.55;1.00;;;;;;;14.59;50.53;99521.63;1789655;78;20932;-68
2021/05/12 07:53:39;;;;;;;1.47;0.68;;;;;;;14.59;49.65;99526.58;1790270;78;21025;-72
2021/05/12 07:56:05;;;;;;;3.62;1.82;;;;;;;14.63;49.89;99519.80;1820010;78;20961;-73
2021/05/12 07:58:31;;;;;;;1.45;1.00;;;;;;;14.71;49.92;99523.84;1790330;78;20965;-78
2021/05/12 08:01:06;;;;;;;6.45;1.17;;;;;;;14.82;50.54;99520.05;1820247;78;20992;-75
2021/05/12 08:03:25;;;;;;;4.05;1.50;;;;;;;14.90;48.45;99526.04;1818778;78;20997;-69
2021/05/12 08:05:52;;;;;;;7.08;1.20;;;;;;;14.85;48.13;99529.03;1820218;78;20921;-72
2021/05/12 08:08:18;;;;;;;3.70;0.70;;;;;;;14.82;48.98;99523.62;1820044;78;20973;-69
2021/05/12 08:10:44;;;;;;;4.45;1.30;;;;;;;14.86;47.26;99525.92;1820120;78;20862;-74
2021/05/12 08:13:10;;;;;;;1.60;1.02;;;;;;;14.79;47.71;99516.59;1820227;78;21503;-67
2021/05/12 08:15:36;;;;;;;6.33;1.00;;;;;;;14.81;48.57;99520.63;1820171;78;20937;-72
2021/05/12 08:18:03;;;;;;;2.75;1.65;;;;;;;14.89;48.63;99530.53;1820177;78;20882;-72
2021/05/12 08:20:30;;;;;;;8.05;1.30;;;;;;;14.88;47.89;99522.81;1788253;78;20925;-71
2021/05/12 08:22:57;;;;;;;4.65;1.37;;;;;;;14.77;48.95;99522.46;1787816;79;20949;-68
2021/05/12 08:25:24;;;;;;;3.67;0.80;;;;;;;14.69;49.36;99524.75;1787869;80;21124;-74
2021/05/12 08:27:53;;;;;;;12.85;1.12;;;;;;;14.61;49.20;99509.66;1793426;78;20945;-73
2021/05/12 08:30:23;;;;;;;1.12;0.65;;;;;;;14.48;48.39;99517.92;1781864;78;20901;-70
2021/05/12 08:32:48;;;;;;;8.05;0.80;;;;;;;14.26;48.11;99519.70;1819752;78;21008;-70
2021/05/12 08:35:14;;;;;;;2.08;0.78;;;;;;;14.03;47.23;99519.84;1820144;78;21424;-67
2021/05/12 08:37:40;;;;;;;2.22;0.57;;;;;;;13.94;49.90;99526.83;1820044;78;20937;-71
2021/05/12 08:40:08;;;;;;;2.65;0.62;;;;;;;14.02;49.66;99516.28;1820005;78;21527;-69
2021/05/12 08:42:34;;;;;;;4.80;0.70;;;;;;;14.06;49.53;99518.59;1790663;78;20845;-69
2021/05/12 08:45:00;;;;;;;4.45;1.10;;;;;;;14.02;49.48;99515.47;1790276;78;20901;-73
2021/05/12 08:47:27;;;;;;;3.10;0.98;;;;;;;14.04;49.99;99517.33;1808806;78;20929;-70
2021/05/12 08:49:54;;;;;;;1.98;0.40;;;;;;;14.09;49.84;99508.83;1804363;79;21023;-73
2021/05/12 08:52:23;;;;;;;5.17;0.82;;;;;;;14.08;50.02;99507.22;1815114;79;21515;-72
2021/05/12 08:54:50;;;;;;;4.37;0.62;;;;;;;14.10;49.68;99510.45;1790074;79;20965;-74
2021/05/12 08:57:16;;;;;;;1.98;1.05;;;;;;;14.18;49.95;99504.03;1796112;78;21559;-74
2021/05/12 08:59:42;;;;;;;7.35;1.12;;;;;;;14.22;48.36;99500.83;1792167;79;21222;-73
2021/05/12 09:02:09;;;;;;;1.12;0.70;;;;;;;14.21;48.99;99501.97;1792639;79;21580;-73
2021/05/12 09:04:35;;;;;;;1.30;0.45;;;;;;;14.14;49.63;99494.24;1797062;79;21024;-73
2021/05/12 09:07:01;;;;;;;0.55;0.40;;;;;;;14.14;48.95;99502.52;1796278;79;20842;-74
2021/05/12 09:09:27;;;;;;;3.80;0.60;;;;;;;14.10;49.65;99502.16;1772365;80;21028;-73
2021/05/12 09:11:57;;;;;;;1.15;0.50;;;;;;;14.04;49.04;99498.81;1798861;79;20951;-73
2021/05/12 09:14:38;;;;;;;4.92;0.80;;;;;;;13.93;48.80;99507.27;1795030;79;21086;-76
2021/05/12 09:16:59;;;;;;;2.30;0.62;;;;;;;13.78;49.81;99497.70;1791238;79;21119;-72
2021/05/12 09:19:27;;;;;;;2.90;0.85;;;;;;;13.67;48.75;99506.14;1797702;79;21548;-73
2021/05/12 09:22:04;;;;;;;6.47;0.78;;;;;;;13.50;49.88;99494.67;1796959;78;20879;-73
2021/05/12 09:24:38;;;;;;;1.82;0.60;;;;;;;13.36;50.00;99500.22;1792961;79;20954;-72
2021/05/12 09:27:10;;;;;;;2.80;0.68;;;;;;;13.25;51.66;99497.64;1794396;79;21143;-74
2021/05/12 09:29:40;;;;;;;6.58;0.70;;;;;;;13.24;50.95;99501.54;1763799;79;20989;-74
2021/05/12 09:32:17;;;;;;;2.30;0.53;;;;;;;13.28;50.27;99495.03;1793247;79;21038;-72
2021/05/12 09:35:01;;;;;;;0.40;0.40;;;;;;;13.32;50.23;99495.94;1797258;79;21448;-72
2021/05/12 09:37:32;;;;;;;8.53;0.75;;;;;;;13.36;50.67;99488.62;1788400;79;20960;-72
2021/05/12 09:40:05;;;;;;;5.53;0.77;;;;;;;13.42;50.49;99494.17;1796598;79;21555;-71
2021/05/12 09:42:32;;;;;;;1.55;0.40;;;;;;;13.45;49.40;99491.31;1786127;79;20871;-72
2021/05/12 09:45:21;;;;;;;1.95;0.60;;;;;;;13.45;50.49;99494.06;1795839;79;20942;-73
2021/05/12 09:47:57;;;;;;;4.67;0.80;;;;;;;13.43;49.80;99507.38;1792627;79;20970;-73
2021/05/12 09:50:34;;;;;;;5.33;0.85;;;;;;;13.34;50.32;99499.17;1779981;79;21036;-72
2021/05/12 09:53:08;;;;;;;0.72;0.50;;;;;;;13.32;51.15;99503.41;1803114;79;21172;-72
2021/05/12 09:55:37;;;;;;;0.95;0.65;;;;;;;13.28;50.70;99506.05;1788288;79;22387;-72
2021/05/12 09:58:08;;;;;;;1.92;0.50;;;;;;;13.28;51.49;99503.30;1804229;79;21404;-72
2021/05/12 10:00:37;;;;;;;3.15;0.80;;;;;;;13.34;51.17;99498.36;1804304;79;20924;-72
2021/05/12 10:03:05;;;;;;;2.98;0.72;;;;;;;13.41;51.23;99499.45;1804485;79;20866;-72
2021/05/12 10:06:00;;;;;;;3.77;0.65;;;;;;;13.52;50.39;99494.34;1804499;79;21881;-72
2021/05/12 10:08:31;;;;;;;4.83;0.90;;;;;;;13.59;51.45;99493.23;1804473;79;20960;-72
2021/05/12 10:11:01;;;;;;;0.82;0.72;;;;;;;13.71;50.64;99487.78;1804485;79;20937;-74
2021/05/12 10:13:29;;;;;;;1.55;0.60;;;;;;;13.85;50.43;99489.68;1788363;79;20993;-73
2021/05/12 10:15:55;;;;;;;3.25;0.80;;;;;;;13.95;49.02;99487.05;1804325;79;20916;-73
2021/05/12 10:18:21;;;;;;;1.07;0.60;;;;;;;13.99;48.64;99483.03;1804522;79;21822;-73
2021/05/12 10:20:47;;;;;;;2.20;0.70;;;;;;;14.01;47.94;99480.74;1804394;79;20909;-73
2021/05/12 10:23:14;;;;;;;1.72;0.70;;;;;;;14.07;49.63;99482.14;1804511;79;20904;-71
2021/05/12 10:25:40;;;;;;;7.00;0.50;;;;;;;14.27;50.25;99486.80;1804375;79;21519;-71
2021/05/12 10:28:07;;;;;;;1.00;0.60;;;;;;;14.49;49.88;99484.20;1804415;79;20992;-72
2021/05/12 10:30:35;;;;;;;1.57;0.80;;;;;;;14.70;49.51;99489.06;1804488;79;21200;-72
2021/05/12 10:33:01;;;;;;;3.65;1.20;;;;;;;14.77;48.23;99481.02;1804428;79;20893;-72
2021/05/12 10:35:36;;;;;;;0.47;0.47;;;;;;;14.71;47.57;99476.06;1804384;79;20925;-72
2021/05/12 10:38:03;;;;;;;7.33;0.80;;;;;;;14.61;47.55;99482.84;1804377;79;20901;-72
2021/05/12 10:40:32;;;;;;;12.40;0.88;;;;;;;14.41;47.59;99479.05;1804432;79;20937;-72
2021/05/12 10:43:14;;;;;;;1.30;0.75;;;;;;;14.25;47.30;99478.62;1804226;79;21112;-72
2021/05/12 10:45:56;;;;;;;6.03;0.60;;;;;;;14.08;47.59;99479.62;1804149;79;20937;-71
2021/05/12 10:48:40;;;;;;;;;;;;;;;13.96;48.90;99481.76;1790351;79;20909;-72
2021/05/12 10:51:26;;;;;;;5.75;1.00;;;;;;;13.91;49.57;99481.16;1789945;79;20172;-72
2021/05/12 10:53:54;;;;;;;7.17;0.90;;;;;;;13.89;50.35;99478.17;1789257;79;20961;-73
2021/05/12 10:56:23;;;;;;;4.85;0.85;;;;;;;14.01;50.27;99468.32;1787151;80;21124;-73
2021/05/12 10:58:58;;;;;;;1.95;0.90;;;;;;;14.14;49.58;99471.35;1787197;80;21507;-72
2021/05/12 11:01:49;;;;;;;1.30;0.88;;;;;;;14.28;47.95;99473.80;1787251;80;20882;-72
2021/05/12 11:04:19;;;;;;;1.82;1.10;;;;;;;14.27;48.91;99470.23;1786963;80;21021;-72
2021/05/12 11:06:54;;;;;;;2.10;1.22;;;;;;;14.24;49.18;99468.16;1787259;80;22059;-72
2021/05/12 11:09:24;;;;;;;2.00;0.85;;;;;;;14.23;49.67;99477.59;1787217;80;21075;-73
2021/05/12 11:11:57;;;;;;;2.77;0.88;;;;;;;14.13;49.41;99465.03;1785265;80;21548;-72
2021/05/12 11:14:37;;;;;;;8.90;1.00;;;;;;;14.07;49.61;99478.00;1787247;80;20992;-72
2021/05/12 11:17:14;;;;;;;4.70;0.80;;;;;;;14.04;49.71;99469.02;1786174;80;20981;-72
2021/05/12 11:19:50;;;;;;;1.47;0.70;;;;;;;14.00;49.76;99471.66;1787295;80;20882;-71
2021/05/12 11:22:44;;;;;;;1.50;0.78;;;;;;;14.00;50.58;99466.70;1787162;80;21924;-71
2021/05/12 11:33:35;;;;;;;5.67;1.12;;;;;;;13.96;49.57;99458.30;1813312;79;21586;-72
2021/05/12 11:36:08;;;;;;;1.35;0.45;;;;;;;14.07;49.19;99456.73;1813495;78;21028;-72
2021/05/12 11:38:34;;;;;;;;;;;;;;;14.32;49.15;99449.31;1815269;78;20973;-72
2021/05/12 11:41:17;;;;;;;2.12;0.60;;;;;;;14.56;47.96;99437.48;1812625;79;20252;-73
2021/05/12 11:43:55;;;;;;;1.50;0.60;;;;;;;14.77;47.23;99432.66;1812896;79;20985;-73
2021/05/12 11:46:30;;;;;;;4.90;0.78;;;;;;;15.06;45.99;99419.13;1814314;78;21143;-73
2021/05/12 11:49:03;;;;;;;1.82;0.70;;;;;;;15.38;46.16;99418.70;1819884;78;22360;-72
2021/05/12 11:51:51;;;;;;;4.90;0.60;;;;;;;15.87;47.16;99403.28;1819773;78;21602;-72
2021/05/12 11:54:23;;;;;;;3.20;0.70;;;;;;;16.49;44.82;99398.34;1820316;78;20993;-73
2021/05/12 11:56:57;;;;;;;2.10;0.70;;;;;;;16.89;43.85;99392.35;1820458;78;20965;-72
2021/05/12 11:59:25;;;;;;;1.35;0.60;;;;;;;17.03;40.45;99382.97;1820312;78;20882;-72